Time;durP1;ratioP1;P1;durP2;ratioP2;P2;SDS_P1;SDS_P2;PMS_P1;PMS_P2;Temp;Humidity;BMP_temperature;BMP_pressure;BME280_temperature;BME280_humidity;BME280_pressure;Samples;Min_cycle;Max_cycle;Signal;HPM_P1;HPM_P2
2023/09/15 00:00:46;;;;;;;8.82;7.28;;;19.90;99.90;;;;;;5095995;28;20039;-67
2023/09/15 00:03:12;;;;;;;10.90;7.38;;;19.90;99.90;;;;;;5096607;28;20081;-67
2023/09/15 00:05:38;;;;;;;14.82;6.93;;;19.90;99.90;;;;;;5096177;28;20457;-67
2023/09/15 00:08:05;;;;;;;11.48;7.72;;;19.90;99.90;;;;;;5096275;28;20035;-67
2023/09/15 00:10:33;;;;;;;11.57;7.32;;;19.90;99.90;;;;;;5096101;28;20078;-67
2023/09/15 00:12:59;;;;;;;14.18;8.00;;;19.90;99.90;;;;;;5096345;28;20024;-67
2023/09/15 00:15:26;;;;;;;10.85;8.52;;;19.90;99.90;;;;;;5095822;28;20036;-67
2023/09/15 00:17:52;;;;;;;10.60;7.47;;;19.90;99.90;;;;;;5096450;28;20024;-67
2023/09/15 00:20:18;;;;;;;10.90;7.80;;;19.80;99.90;;;;;;5095604;28;20081;-67
2023/09/15 00:22:49;;;;;;;12.88;7.97;;;19.80;99.90;;;;;;5096128;28;20431;-67
2023/09/15 00:25:23;;;;;;;9.35;7.25;;;19.80;99.90;;;;;;5095767;28;20028;-67
2023/09/15 00:27:58;;;;;;;10.77;6.95;;;19.80;99.90;;;;;;5096232;28;20077;-67
2023/09/15 00:30:25;;;;;;;9.88;6.57;;;19.80;99.90;;;;;;5094419;28;20393;-67
2023/09/15 00:32:52;;;;;;;12.85;7.05;;;19.90;99.90;;;;;;5096104;28;20308;-67
2023/09/15 00:35:20;;;;;;;10.60;8.05;;;19.90;99.90;;;;;;5094370;28;20032;-67
2023/09/15 00:37:48;;;;;;;9.70;7.60;;;19.90;99.90;;;;;;5095750;28;20058;-67
2023/09/15 00:40:19;;;;;;;10.02;7.95;;;19.80;99.90;;;;;;5095463;28;20027;-67
2023/09/15 00:42:46;;;;;;;15.18;8.68;;;19.70;99.90;;;;;;5094613;28;20123;-67
2023/09/15 00:45:18;;;;;;;13.68;8.45;;;19.80;99.90;;;;;;5095638;28;20027;-67
2023/09/15 00:47:52;;;;;;;10.80;8.32;;;19.70;99.90;;;;;;5095997;28;20166;-67
2023/09/15 00:50:22;;;;;;;12.43;8.50;;;19.60;99.90;;;;;;5095551;28;20028;-67
2023/09/15 00:52:52;;;;;;;11.20;8.25;;;19.60;99.90;;;;;;5095892;28;20109;-67
2023/09/15 00:55:24;;;;;;;26.67;12.90;;;19.50;99.90;;;;;;5115989;28;20104;-67
2023/09/15 00:57:52;;;;;;;25.13;13.48;;;19.50;99.90;;;;;;5093662;28;20036;-67
2023/09/15 01:00:19;;;;;;;28.42;14.35;;;19.50;99.90;;;;;;5094025;28;20056;-67
2023/09/15 01:02:47;;;;;;;21.85;13.05;;;19.50;99.90;;;;;;5093941;28;20038;-67
2023/09/15 01:05:19;;;;;;;16.38;13.07;;;19.50;99.90;;;;;;5094681;28;20051;-67
2023/09/15 01:07:51;;;;;;;15.80;10.60;;;19.60;99.90;;;;;;5094919;28;20024;-67
2023/09/15 01:10:19;;;;;;;13.38;10.70;;;19.60;99.90;;;;;;5094218;28;20082;-67
2023/09/15 01:12:47;;;;;;;15.13;10.73;;;19.70;99.90;;;;;;5093214;28;20032;-67
2023/09/15 01:15:14;;;;;;;14.55;11.00;;;19.60;99.90;;;;;;5095341;28;20032;-67
2023/09/15 01:18:08;;;;;;;11.85;8.55;;;19.60;99.90;;;;;;5095007;28;20088;-67
2023/09/15 01:20:56;;;;;;;12.88;8.73;;;19.50;99.90;;;;;;5094924;28;20119;-67
2023/09/15 01:23:51;;;;;;;11.38;9.45;;;19.50;99.90;;;;;;5093534;28;20183;-67
2023/09/15 01:26:55;;;;;;;11.68;8.60;;;19.50;99.90;;;;;;5094619;28;20095;-67
2023/09/15 01:29:38;;;;;;;14.77;9.05;;;19.50;99.90;;;;;;5093784;28;20032;-67
2023/09/15 01:32:10;;;;;;;20.42;8.57;;;19.50;99.90;;;;;;5094638;28;20036;-67
2023/09/15 01:34:37;;;;;;;15.10;8.77;;;19.40;99.90;;;;;;5094861;28;20099;-67
2023/09/15 01:37:04;;;;;;;17.08;9.43;;;19.30;99.90;;;;;;5094562;28;20032;-67
2023/09/15 01:39:33;;;;;;;16.08;8.85;;;19.20;99.90;;;;;;5093556;28;20543;-67
2023/09/15 01:42:02;;;;;;;13.55;8.80;;;19.10;99.90;;;;;;5094524;28;20024;-67
2023/09/15 01:44:28;;;;;;;16.00;9.43;;;19.10;99.90;;;;;;5094720;28;20032;-67
2023/09/15 01:46:54;;;;;;;13.73;8.80;;;19.00;99.90;;;;;;5094974;28;20025;-67
2023/09/15 01:49:21;;;;;;;13.25;8.65;;;19.00;99.90;;;;;;5094423;28;20111;-66
2023/09/15 01:51:48;;;;;;;13.73;9.35;;;18.90;99.90;;;;;;5093397;28;20042;-67
2023/09/15 01:54:18;;;;;;;12.90;9.27;;;18.90;99.90;;;;;;5108112;28;20039;-67
2023/09/15 01:56:45;;;;;;;14.37;9.90;;;18.80;99.90;;;;;;5102772;28;20051;-67
2023/09/15 01:59:13;;;;;;;16.13;9.90;;;18.70;99.90;;;;;;5092868;28;20126;-67
2023/09/15 02:01:39;;;;;;;11.50;8.80;;;18.70;99.90;;;;;;5093321;28;20333;-67
2023/09/15 02:04:05;;;;;;;12.80;9.20;;;18.80;99.90;;;;;;5094202;28;20416;-67
2023/09/15 02:06:31;;;;;;;13.48;9.23;;;18.70;99.90;;;;;;5093285;28;20028;-67
2023/09/15 02:08:57;;;;;;;15.10;9.52;;;18.60;99.90;;;;;;5093992;28;20027;-67
2023/09/15 02:11:24;;;;;;;12.10;8.77;;;18.60;99.90;;;;;;5093253;28;20111;-67
2023/09/15 02:13:50;;;;;;;11.95;9.23;;;18.40;99.90;;;;;;5092955;28;20474;-66
2023/09/15 02:16:16;;;;;;;13.50;9.48;;;18.30;99.90;;;;;;5096563;28;20370;-67
2023/09/15 02:18:43;;;;;;;11.75;9.27;;;18.40;99.90;;;;;;5098371;28;20024;-66
2023/09/15 02:21:09;;;;;;;12.70;9.18;;;18.40;99.90;;;;;;5098589;28;20032;-67
2023/09/15 02:23:35;;;;;;;13.13;8.73;;;18.30;99.90;;;;;;5096845;28;20109;-67
2023/09/15 02:26:05;;;;;;;15.82;8.55;;;18.30;99.90;;;;;;5097214;28;20032;-67
2023/09/15 02:28:32;;;;;;;17.70;9.70;;;18.20;99.90;;;;;;5098286;28;20020;-67
2023/09/15 02:30:58;;;;;;;13.32;9.30;;;18.20;99.90;;;;;;5097015;28;20047;-67
2023/09/15 02:33:24;;;;;;;14.90;9.32;;;18.30;99.90;;;;;;5098358;28;20059;-66
2023/09/15 02:35:50;;;;;;;13.52;8.60;;;18.30;99.90;;;;;;5096709;28;20058;-67
2023/09/15 02:38:16;;;;;;;12.35;8.75;;;18.10;99.90;;;;;;5096815;28;20039;-67
2023/09/15 02:40:43;;;;;;;13.10;9.00;;;18.10;99.90;;;;;;5096573;28;20469;-67
2023/09/15 02:43:09;;;;;;;14.25;8.98;;;17.90;99.90;;;;;;5097130;28;20026;-67
2023/09/15 02:45:36;;;;;;;12.77;9.95;;;17.80;99.90;;;;;;5096487;28;20028;-67
2023/09/15 02:48:03;;;;;;;11.15;8.60;;;17.70;99.90;;;;;;5096874;28;20119;-67
2023/09/15 02:50:30;;;;;;;16.77;9.68;;;17.80;99.90;;;;;;5096321;28;20116;-67
2023/09/15 02:52:57;;;;;;;12.40;8.93;;;17.80;99.90;;;;;;5099623;28;20031;-67
2023/09/15 02:55:23;;;;;;;15.73;9.15;;;17.80;99.90;;;;;;5116091;28;20075;-67
2023/09/15 02:57:52;;;;;;;12.18;8.85;;;17.80;99.90;;;;;;5096565;28;20035;-67
2023/09/15 03:00:20;;;;;;;11.55;8.40;;;17.70;99.90;;;;;;5096042;28;20128;-67
2023/09/15 03:02:47;;;;;;;15.38;8.93;;;17.70;99.90;;;;;;5096587;28;20398;-66
2023/09/15 03:05:14;;;;;;;15.38;8.63;;;17.60;99.90;;;;;;5096054;28;20028;-67
2023/09/15 03:07:41;;;;;;;15.35;8.73;;;17.50;99.90;;;;;;5096415;28;20089;-67
2023/09/15 03:10:10;;;;;;;13.25;8.82;;;17.60;99.90;;;;;;5096162;28;20515;-66
2023/09/15 03:12:37;;;;;;;16.63;8.95;;;17.60;99.90;;;;;;5096213;28;20032;-67
2023/09/15 03:15:06;;;;;;;14.50;9.30;;;17.60;99.90;;;;;;5096018;28;20058;-66
2023/09/15 03:17:34;;;;;;;12.50;8.88;;;17.50;99.90;;;;;;5096257;28;20512;-66
2023/09/15 03:20:00;;;;;;;13.68;9.43;;;17.50;99.90;;;;;;5097247;28;20028;-66
2023/09/15 03:22:27;;;;;;;14.98;9.80;;;17.50;99.90;;;;;;5095911;28;20031;-66
2023/09/15 03:24:57;;;;;;;13.65;8.88;;;17.50;99.90;;;;;;5096246;28;20039;-67
2023/09/15 03:27:25;;;;;;;12.35;8.85;;;17.40;99.90;;;;;;5094892;28;20107;-67
2023/09/15 03:29:51;;;;;;;12.38;8.80;;;17.40;99.90;;;;;;5097341;28;20036;-66
2023/09/15 03:32:17;;;;;;;12.70;9.13;;;17.40;99.90;;;;;;5095601;28;20028;-67
2023/09/15 03:34:43;;;;;;;11.77;8.52;;;17.20;99.90;;;;;;5095853;28;20039;-67
2023/09/15 03:37:08;;;;;;;13.48;9.07;;;17.30;99.90;;;;;;5096981;28;20400;-66
2023/09/15 03:39:34;;;;;;;13.52;9.52;;;17.10;99.90;;;;;;5097095;28;20469;-66
2023/09/15 03:42:01;;;;;;;17.40;9.90;;;17.20;99.90;;;;;;5095498;28;20081;-67
2023/09/15 03:44:27;;;;;;;16.30;10.27;;;17.30;99.90;;;;;;5095695;28;20381;-66
2023/09/15 03:46:52;;;;;;;15.80;9.88;;;17.30;99.90;;;;;;5096748;28;20038;-66
2023/09/15 03:49:19;;;;;;;15.25;9.77;;;17.30;99.90;;;;;;5095606;28;20043;-66
2023/09/15 03:51:45;;;;;;;17.67;10.48;;;17.30;99.90;;;;;;5096618;28;20111;-66
2023/09/15 03:54:10;;;;;;;13.00;9.80;;;17.30;99.90;;;;;;5108940;28;20497;-67
2023/09/15 03:56:36;;;;;;;14.27;9.18;;;17.20;99.90;;;;;;5104276;28;20032;-67
2023/09/15 03:59:03;;;;;;;13.95;8.77;;;17.20;99.90;;;;;;5096616;28;20460;-66
2023/09/15 04:01:31;;;;;;;15.98;9.85;;;17.20;99.90;;;;;;5077945;28;20032;-67
2023/09/15 04:03:59;;;;;;;15.02;9.10;;;17.30;99.90;;;;;;5095196;28;20035;-66
2023/09/15 04:06:25;;;;;;;15.27;10.20;;;17.30;99.90;;;;;;5096721;28;20025;-66
2023/09/15 04:08:51;;;;;;;14.50;9.73;;;17.30;99.90;;;;;;5096217;28;20038;-67
2023/09/15 04:11:16;;;;;;;14.10;9.43;;;17.20;99.90;;;;;;5095036;28;20043;-67
2023/09/15 04:13:42;;;;;;;19.90;9.93;;;17.20;99.90;;;;;;5095886;28;20032;-66
2023/09/15 04:16:09;;;;;;;17.13;9.27;;;17.10;99.90;;;;;;5096507;28;20039;-67
2023/09/15 04:18:35;;;;;;;15.07;9.88;;;17.10;99.90;;;;;;5096013;28;20078;-66
2023/09/15 04:21:00;;;;;;;16.13;9.75;;;17.10;99.90;;;;;;5094990;28;20031;-66
2023/09/15 04:23:27;;;;;;;18.42;9.57;;;17.10;99.90;;;;;;5094423;28;20031;-67
2023/09/15 04:25:53;;;;;;;18.48;10.68;;;17.10;99.90;;;;;;5094898;28;20107;-66
2023/09/15 04:28:19;;;;;;;17.65;10.70;;;17.10;99.90;;;;;;5094497;28;20055;-67
2023/09/15 04:30:46;;;;;;;19.10;10.60;;;17.10;99.90;;;;;;5094932;28;20439;-67
2023/09/15 04:33:15;;;;;;;22.85;11.13;;;17.00;99.90;;;;;;5094317;28;20078;-66
2023/09/15 04:35:41;;;;;;;18.17;10.48;;;17.00;99.90;;;;;;5094832;28;20051;-66
2023/09/15 04:38:07;;;;;;;17.63;11.45;;;17.00;99.90;;;;;;5095553;28;20024;-66
2023/09/15 04:40:34;;;;;;;16.98;11.02;;;17.00;99.90;;;;;;5093509;28;20036;-67
2023/09/15 04:43:00;;;;;;;19.92;11.82;;;17.00;99.90;;;;;;5093975;28;20050;-67
2023/09/15 04:45:28;;;;;;;21.90;10.85;;;17.00;99.90;;;;;;5094401;28;20053;-66
2023/09/15 04:47:55;;;;;;;18.90;11.00;;;17.10;99.90;;;;;;5094074;28;20027;-67
2023/09/15 04:50:23;;;;;;;18.95;10.98;;;17.10;99.90;;;;;;5094483;28;20338;-66
2023/09/15 04:52:50;;;;;;;22.40;12.70;;;17.10;99.90;;;;;;5096308;28;20493;-67
2023/09/15 04:55:16;;;;;;;21.55;13.02;;;17.20;99.90;;;;;;5114309;28;20084;-66
2023/09/15 04:57:42;;;;;;;22.90;13.85;;;17.30;99.90;;;;;;5094381;28;20028;-66
2023/09/15 05:00:12;;;;;;;26.83;13.70;;;17.50;99.90;;;;;;5103635;28;20538;-66
2023/09/15 05:02:44;;;;;;;21.90;13.55;;;17.60;99.90;;;;;;5114613;28;20500;-66
2023/09/15 05:05:11;;;;;;;27.73;14.57;;;17.70;99.90;;;;;;5114132;28;20418;-66
2023/09/15 05:07:37;;;;;;;21.65;13.20;;;17.90;99.90;;;;;;5114285;28;20492;-66
2023/09/15 05:10:04;;;;;;;20.65;11.73;;;18.00;99.90;;;;;;5113983;28;20031;-67
2023/09/15 05:12:32;;;;;;;18.55;11.60;;;18.00;99.90;;;;;;5114241;28;20430;-66
2023/09/15 05:15:03;;;;;;;21.88;12.50;;;18.10;99.90;;;;;;5113640;28;20034;-66
2023/09/15 05:17:31;;;;;;;20.17;13.48;;;18.20;99.90;;;;;;5114253;28;20142;-66
2023/09/15 05:19:57;;;;;;;24.67;11.95;;;18.20;99.90;;;;;;5114505;28;20544;-67
2023/09/15 05:22:23;;;;;;;18.55;11.68;;;18.30;99.90;;;;;;5113249;28;20084;-66
2023/09/15 05:24:50;;;;;;;20.10;11.35;;;18.50;99.90;;;;;;5113739;28;20032;-66
2023/09/15 05:27:17;;;;;;;16.17;9.43;;;18.60;99.90;;;;;;5114047;28;20028;-67
2023/09/15 05:29:44;;;;;;;15.45;9.57;;;18.70;99.90;;;;;;5113234;28;20085;-67
2023/09/15 05:32:10;;;;;;;16.60;9.40;;;18.90;99.90;;;;;;5112203;28;20027;-66
2023/09/15 05:34:36;;;;;;;16.38;8.95;;;19.00;99.90;;;;;;5113307;28;20099;-67
2023/09/15 05:37:03;;;;;;;19.00;9.07;;;19.10;99.90;;;;;;5114834;27;20070;-66
2023/09/15 05:39:31;;;;;;;24.02;9.25;;;19.20;99.90;;;;;;5114802;28;20023;-66
2023/09/15 05:42:00;;;;;;;20.55;11.20;;;19.30;99.90;;;;;;5113541;28;20527;-67
2023/09/15 05:44:26;;;;;;;22.45;9.65;;;19.40;99.90;;;;;;5114742;28;20053;-67
2023/09/15 05:46:53;;;;;;;19.13;10.70;;;19.50;99.90;;;;;;5114392;28;20024;-67
2023/09/15 05:49:19;;;;;;;21.08;11.02;;;19.70;99.90;;;;;;5103650;28;20043;-66
2023/09/15 05:51:46;;;;;;;20.05;12.55;;;19.60;99.90;;;;;;5093224;28;20111;-67
2023/09/15 05:54:12;;;;;;;24.70;12.93;;;19.70;99.90;;;;;;5108017;28;20024;-67
2023/09/15 05:56:38;;;;;;;28.77;15.38;;;20.00;99.90;;;;;;5114501;28;20027;-67
2023/09/15 05:59:04;;;;;;;30.80;14.93;;;20.00;99.90;;;;;;5114431;28;20048;-67
2023/09/15 06:01:35;;;;;;;27.35;13.52;;;20.30;99.90;;;;;;5114765;28;20055;-66
2023/09/15 06:04:05;;;;;;;20.90;13.27;;;20.30;99.90;;;;;;5109153;28;20047;-67
2023/09/15 06:06:36;;;;;;;26.92;14.25;;;20.70;99.90;;;;;;5114154;28;20034;-66
2023/09/15 06:09:15;;;;;;;33.40;20.92;;;20.90;99.90;;;;;;5110915;28;20122;-67
2023/09/15 06:11:41;;;;;;;19.67;12.50;;;20.80;99.90;;;;;;5113362;28;20016;-67
2023/09/15 06:14:07;;;;;;;21.83;10.23;;;20.70;99.90;;;;;;5114083;28;20051;-67
2023/09/15 06:16:39;;;;;;;18.38;11.27;;;20.90;99.90;;;;;;5114592;28;20024;-66
2023/09/15 06:19:08;;;;;;;17.65;10.25;;;21.30;99.90;;;;;;5113791;28;20085;-66
2023/09/15 06:22:03;;;;;;;17.77;11.43;;;21.60;99.90;;;;;;5115173;28;20020;-65
2023/09/15 06:24:52;;;;;;;19.90;10.38;;;22.00;99.90;;;;;;5112935;28;20039;-66
2023/09/15 06:27:21;;;;;;;19.55;11.80;;;22.10;99.90;;;;;;5113959;28;20107;-66
2023/09/15 06:29:47;;;;;;;17.80;10.82;;;22.10;99.90;;;;;;5114223;28;20031;-67
2023/09/15 06:32:14;;;;;;;21.50;11.45;;;22.40;99.90;;;;;;5114026;28;20028;-66
2023/09/15 06:38:37;;;;;;;29.80;12.07;;;23.50;99.70;;;;;;5094656;28;20124;-66
2023/09/15 06:41:07;;;;;;;18.30;10.32;;;23.80;98.50;;;;;;5093012;28;20028;-66
2023/09/15 06:43:33;;;;;;;20.52;11.75;;;24.10;98.10;;;;;;5094095;28;20050;-66
2023/09/15 06:45:59;;;;;;;21.27;10.45;;;24.10;96.40;;;;;;5094243;28;20032;-66
2023/09/15 06:48:24;;;;;;;18.08;8.60;;;24.10;95.80;;;;;;5094248;28;20427;-67
2023/09/15 06:50:50;;;;;;;17.90;10.38;;;24.40;95.50;;;;;;5093838;28;20087;-67
2023/09/15 06:53:16;;;;;;;27.73;10.90;;;24.60;94.70;;;;;;5093107;28;20130;-67
2023/09/15 06:55:42;;;;;;;20.52;10.95;;;24.70;94.20;;;;;;5093629;28;20020;-66
2023/09/15 06:58:08;;;;;;;24.20;9.52;;;24.90;94.10;;;;;;5084764;28;20059;-67
2023/09/15 07:00:34;;;;;;;19.23;9.73;;;25.00;93.50;;;;;;5073746;28;20035;-67
2023/09/15 07:03:00;;;;;;;15.27;9.27;;;24.80;92.50;;;;;;5074721;28;20036;-67
2023/09/15 07:05:26;;;;;;;15.55;10.10;;;24.30;93.00;;;;;;5077135;28;20059;-67
2023/09/15 07:07:52;;;;;;;13.38;9.02;;;24.20;93.30;;;;;;5095912;28;20035;-66
2023/09/15 07:10:18;;;;;;;17.98;8.68;;;23.70;94.20;;;;;;5098299;28;20067;-66
2023/09/15 07:12:44;;;;;;;20.38;9.30;;;23.60;95.40;;;;;;5097682;28;20477;-65
2023/09/15 07:15:10;;;;;;;15.57;8.73;;;23.70;95.10;;;;;;5095432;28;20063;-68
2023/09/15 07:17:36;;;;;;;14.20;9.68;;;23.60;95.50;;;;;;5096285;28;20358;-67
2023/09/15 07:20:03;;;;;;;16.23;10.00;;;23.60;95.70;;;;;;5098120;28;20031;-67
2023/09/15 07:22:47;;;;;;;21.58;10.63;;;23.50;95.80;;;;;;5095539;28;20048;-67
2023/09/15 07:25:14;;;;;;;16.92;11.23;;;23.10;96.80;;;;;;5097960;28;20024;-67
2023/09/15 07:27:44;;;;;;;20.85;10.25;;;23.00;96.80;;;;;;5096380;28;20059;-67
2023/09/15 07:30:10;;;;;;;21.30;10.85;;;23.10;97.20;;;;;;5097444;28;20051;-67
2023/09/15 07:32:39;;;;;;;19.58;10.32;;;23.10;97.50;;;;;;5097549;28;20050;-67
2023/09/15 07:35:05;;;;;;;41.53;12.70;;;23.20;97.40;;;;;;5096402;28;20028;-67
2023/09/15 07:37:36;;;;;;;47.40;13.00;;;23.20;97.60;;;;;;5096751;28;20031;-67
2023/09/15 07:40:10;;;;;;;27.52;11.45;;;23.30;97.40;;;;;;5096479;28;20071;-67
2023/09/15 07:42:38;;;;;;;21.40;11.75;;;23.40;97.40;;;;;;5096728;28;20032;-67
2023/09/15 07:45:10;;;;;;;22.17;11.82;;;23.50;96.80;;;;;;5096278;28;20048;-67
2023/09/15 07:47:36;;;;;;;16.05;11.23;;;23.50;96.70;;;;;;5096988;28;20461;-67
2023/09/15 07:50:02;;;;;;;18.02;11.25;;;23.50;96.40;;;;;;5096624;28;20020;-67
2023/09/15 07:52:29;;;;;;;12.70;9.27;;;23.60;96.00;;;;;;5097265;28;20044;-68
2023/09/15 07:54:55;;;;;;;15.10;9.55;;;23.70;96.20;;;;;;5097258;28;20096;-68
2023/09/15 07:57:21;;;;;;;14.75;10.13;;;23.60;96.10;;;;;;5080129;28;20112;-68
2023/09/15 07:59:47;;;;;;;16.75;10.23;;;23.60;95.80;;;;;;5093227;28;20044;-67
2023/09/15 08:02:13;;;;;;;28.67;11.25;;;23.60;95.60;;;;;;5097398;28;20024;-68
2023/09/15 08:04:41;;;;;;;13.45;9.55;;;23.70;94.90;;;;;;5096999;28;20028;-68
2023/09/15 08:07:07;;;;;;;14.50;9.60;;;23.10;95.60;;;;;;5097177;28;20081;-68
2023/09/15 08:09:34;;;;;;;11.15;8.50;;;23.40;96.20;;;;;;5096782;28;20024;-67
2023/09/15 08:12:00;;;;;;;13.45;8.63;;;24.00;95.70;;;;;;5095842;28;20045;-68
2023/09/15 08:14:27;;;;;;;11.38;9.38;;;24.80;94.70;;;;;;5095647;28;20454;-67
2023/09/15 08:16:53;;;;;;;17.85;8.68;;;25.10;94.00;;;;;;5096578;28;20444;-68
2023/09/15 08:19:20;;;;;;;16.08;9.30;;;25.10;92.90;;;;;;5095950;28;20040;-68
2023/09/15 08:21:47;;;;;;;18.35;8.98;;;25.40;91.90;;;;;;5095766;28;20031;-68
2023/09/15 08:24:13;;;;;;;12.98;8.50;;;26.70;90.70;;;;;;5096432;28;20032;-68
2023/09/15 08:26:39;;;;;;;18.67;10.07;;;27.00;86.80;;;;;;5094504;28;20054;-68
2023/09/15 08:29:06;;;;;;;16.25;8.50;;;26.40;85.90;;;;;;5096023;28;20363;-68
2023/09/15 08:31:32;;;;;;;13.88;8.52;;;25.80;85.20;;;;;;5095864;28;20051;-68
2023/09/15 08:33:58;;;;;;;14.40;9.13;;;25.30;87.30;;;;;;5095443;28;20386;-68
2023/09/15 08:36:26;;;;;;;13.80;8.75;;;24.30;90.10;;;;;;5095485;28;20020;-68
2023/09/15 08:38:53;;;;;;;11.23;8.02;;;24.30;90.50;;;;;;5095612;28;20020;-67
2023/09/15 08:41:31;;;;;;;15.98;8.82;;;24.80;90.10;;;;;;5086144;28;20508;-68
2023/09/15 08:43:58;;;;;;;13.38;8.77;;;24.80;89.70;;;;;;5075113;28;20806;-69
2023/09/15 08:46:27;;;;;;;17.60;8.55;;;24.70;88.90;;;;;;5074984;28;20382;-68
2023/09/15 08:48:57;;;;;;;11.93;8.60;;;24.40;90.00;;;;;;5075095;28;20032;-68
2023/09/15 08:51:25;;;;;;;18.00;10.80;;;24.50;90.00;;;;;;5075111;28;20029;-69
2023/09/15 08:53:56;;;;;;;18.70;11.73;;;24.00;91.00;;;;;;5085852;28;20024;-68
2023/09/15 08:56:23;;;;;;;18.20;11.40;;;23.80;91.80;;;;;;5094711;28;20425;-68
2023/09/15 08:58:49;;;;;;;18.95;10.00;;;23.70;92.30;;;;;;5095339;28;20044;-68
2023/09/15 09:01:18;;;;;;;21.63;13.35;;;24.00;91.20;;;;;;5094830;28;20039;-68
2023/09/15 09:03:47;;;;;;;20.13;13.30;;;23.80;91.80;;;;;;5095144;28;20028;-68
2023/09/15 09:06:14;;;;;;;22.60;13.82;;;23.80;92.70;;;;;;5095021;28;20115;-68
2023/09/15 09:08:45;;;;;;;22.88;13.50;;;23.80;92.20;;;;;;5095029;28;20021;-68
2023/09/15 09:11:15;;;;;;;19.70;12.05;;;23.80;93.60;;;;;;5094732;28;20032;-68
2023/09/15 09:13:41;;;;;;;26.95;12.15;;;24.20;93.10;;;;;;5095084;28;20021;-68
2023/09/15 09:16:07;;;;;;;14.77;10.90;;;24.50;92.20;;;;;;5089023;28;20442;-68
2023/09/15 09:18:34;;;;;;;19.40;10.05;;;24.80;91.80;;;;;;5074626;28;20463;-68
2023/09/15 09:21:04;;;;;;;14.38;8.38;;;24.80;89.30;;;;;;5092756;28;20440;-68
2023/09/15 09:23:30;;;;;;;10.60;7.03;;;24.50;88.80;;;;;;5093805;28;20030;-68
2023/09/15 09:25:59;;;;;;;14.02;7.43;;;24.60;85.90;;;;;;5091939;28;20088;-68
2023/09/15 09:28:28;;;;;;;15.90;7.78;;;24.60;87.70;;;;;;5094475;28;20019;-68
2023/09/15 09:30:55;;;;;;;10.35;6.60;;;24.80;88.00;;;;;;5094474;28;20109;-68
2023/09/15 09:33:22;;;;;;;13.98;7.68;;;25.10;86.20;;;;;;5094195;28;20058;-68
2023/09/15 09:35:51;;;;;;;13.55;8.30;;;25.20;85.60;;;;;;5094550;28;20478;-68
2023/09/15 09:38:17;;;;;;;11.65;8.48;;;25.40;83.60;;;;;;5093559;28;20016;-68
2023/09/15 09:40:45;;;;;;;12.05;7.45;;;25.10;83.60;;;;;;5093850;28;20035;-68
2023/09/15 09:43:15;;;;;;;12.40;9.35;;;24.50;84.40;;;;;;5093854;28;20103;-68
2023/09/15 09:45:47;;;;;;;28.02;12.02;;;24.10;87.20;;;;;;5093356;28;20036;-68
2023/09/15 09:48:13;;;;;;;22.15;11.55;;;24.60;87.60;;;;;;5091211;28;20032;-69
2023/09/15 09:50:39;;;;;;;19.90;11.90;;;24.60;86.60;;;;;;5094420;28;20028;-69
2023/09/15 09:53:09;;;;;;;24.23;12.30;;;24.20;87.10;;;;;;5093822;28;20119;-69
2023/09/15 09:56:00;;;;;;;20.15;11.82;;;23.70;90.00;;;;;;5093024;28;20366;-68
2023/09/15 09:58:45;;;;;;;18.92;11.90;;;23.90;89.70;;;;;;5092809;28;20042;-68
2023/09/15 10:01:20;;;;;;;21.75;10.02;;;24.20;88.80;;;;;;5094127;28;20104;-67
2023/09/15 10:03:49;;;;;;;15.88;8.65;;;24.70;87.40;;;;;;5093668;28;20067;-67
2023/09/15 10:06:24;;;;;;;21.65;10.32;;;25.30;83.20;;;;;;5095039;28;20393;-68
2023/09/15 10:08:50;;;;;;;22.02;11.40;;;26.00;80.60;;;;;;5094716;28;20453;-68
2023/09/15 10:11:17;;;;;;;18.80;11.93;;;26.90;81.20;;;;;;5094554;28;20024;-69
2023/09/15 10:14:20;;;;;;;19.40;12.90;;;26.90;75.00;;;;;;5094638;28;20109;-69
2023/09/15 10:16:47;;;;;;;20.05;10.68;;;26.50;76.90;;;;;;5095015;28;20029;-69
2023/09/15 10:19:15;;;;;;;21.98;13.73;;;27.70;75.50;;;;;;5094321;28;20036;-70
2023/09/15 10:21:45;;;;;;;17.88;10.25;;;27.80;69.80;;;;;;5093960;28;20025;-68
2023/09/15 10:24:12;;;;;;;20.90;14.38;;;27.40;70.40;;;;;;5091494;28;20438;-69
2023/09/15 10:26:41;;;;;;;19.70;13.57;;;27.80;69.40;;;;;;5094125;28;20103;-70
2023/09/15 10:29:10;;;;;;;19.02;12.45;;;27.60;67.50;;;;;;5093756;28;20028;-70
2023/09/15 10:31:36;;;;;;;22.48;12.40;;;27.60;68.50;;;;;;5094235;28;20378;-69
2023/09/15 10:34:04;;;;;;;21.90;13.57;;;28.50;65.40;;;;;;5093920;28;20020;-71
2023/09/15 10:40:08;;;;;;;25.80;14.25;;;28.90;62.80;;;;;;5087174;28;20100;-70
2023/09/15 10:42:35;;;;;;;19.77;14.70;;;28.70;59.10;;;;;;5098273;28;20553;-69
2023/09/15 10:45:11;;;;;;;22.77;16.42;;;27.50;61.50;;;;;;5098762;28;20028;-69
2023/09/15 10:47:37;;;;;;;20.48;15.35;;;27.30;63.50;;;;;;5098319;28;20063;-69
2023/09/15 10:50:05;;;;;;;26.73;18.48;;;28.50;64.40;;;;;;5098061;28;20362;-68
2023/09/15 10:52:33;;;;;;;22.85;16.58;;;29.40;60.60;;;;;;5096841;28;20043;-70
2023/09/15 10:54:59;;;;;;;30.92;15.55;;;28.70;57.80;;;;;;5097428;28;20035;-70
2023/09/15 10:57:26;;;;;;;18.60;13.57;;;28.80;57.00;;;;;;5098124;28;20024;-70
2023/09/15 10:59:54;;;;;;;20.63;16.17;;;29.60;55.90;;;;;;5098098;28;20047;-70
2023/09/15 11:02:21;;;;;;;26.65;16.98;;;29.90;53.00;;;;;;5097867;28;20035;-70
2023/09/15 11:04:48;;;;;;;15.75;13.40;;;29.80;54.70;;;;;;5097174;28;20159;-70
2023/09/15 11:07:16;;;;;;;24.73;14.93;;;30.20;51.50;;;;;;5097752;28;20063;-70
2023/09/15 11:09:45;;;;;;;16.42;13.40;;;30.50;50.80;;;;;;5097021;28;20034;-70
2023/09/15 11:12:12;;;;;;;19.50;14.13;;;30.40;49.50;;;;;;5096912;28;20030;-70
2023/09/15 11:14:40;;;;;;;22.05;15.57;;;31.10;50.00;;;;;;5095639;28;20035;-70
2023/09/15 11:17:07;;;;;;;21.50;15.35;;;31.30;46.80;;;;;;5096733;28;20020;-69
2023/09/15 11:19:37;;;;;;;21.05;15.00;;;30.50;49.00;;;;;;5097045;28;20036;-70
2023/09/15 11:22:03;;;;;;;;;;;29.70;51.00;;;;;;5097454;28;20035;-70
2023/09/15 11:24:31;;;;;;;24.27;17.95;;;29.70;50.00;;;;;;5097174;28;20332;-71
2023/09/15 11:27:00;;;;;;;23.25;18.02;;;29.20;51.80;;;;;;5096981;28;20035;-70
2023/09/15 11:29:41;;;;;;;26.70;20.35;;;29.30;52.00;;;;;;5092229;28;20024;-70
2023/09/15 11:32:07;;;;;;;28.20;21.05;;;29.80;51.80;;;;;;5095499;28;20024;-71
2023/09/15 11:34:33;;;;;;;28.75;20.33;;;29.20;51.90;;;;;;5096731;28;20051;-70
2023/09/15 11:37:00;;;;;;;26.33;21.23;;;29.60;52.50;;;;;;5095588;28;20064;-70
2023/09/15 11:47:01;;;;;;;26.60;21.75;;;29.70;50.60;;;;;;5107543;28;20058;-71
2023/09/15 11:49:29;;;;;;;21.52;17.90;;;29.60;51.20;;;;;;5116568;28;20212;-71
2023/09/15 11:51:57;;;;;;;28.98;21.25;;;29.80;48.60;;;;;;5116534;28;20024;-69
2023/09/15 11:54:25;;;;;;;26.13;19.42;;;29.30;51.20;;;;;;5100881;28;20039;-70
2023/09/15 11:56:53;;;;;;;31.63;22.08;;;29.80;51.50;;;;;;5085331;28;20133;-70
2023/09/15 11:59:20;;;;;;;24.50;19.35;;;30.40;50.00;;;;;;5096172;28;20056;-71
2023/09/15 12:01:48;;;;;;;29.13;20.35;;;29.70;50.10;;;;;;5095876;28;20108;-71
2023/09/15 12:04:14;;;;;;;25.25;19.83;;;29.30;50.60;;;;;;5096600;28;20039;-71
2023/09/15 12:06:42;;;;;;;28.38;19.75;;;29.60;51.50;;;;;;5095525;28;20054;-71
2023/09/15 12:09:12;;;;;;;28.52;19.70;;;29.10;51.90;;;;;;5096272;28;20435;-70
2023/09/15 12:11:44;;;;;;;24.58;19.25;;;30.10;52.10;;;;;;5096083;28;20027;-71
2023/09/15 12:14:15;;;;;;;24.92;19.15;;;31.20;47.50;;;;;;5096263;28;20020;-70
2023/09/15 12:16:48;;;;;;;28.05;21.63;;;31.70;48.40;;;;;;5095580;28;20024;-71
2023/09/15 12:19:16;;;;;;;31.77;22.85;;;31.40;46.40;;;;;;5096225;28;20028;-71
2023/09/15 12:21:50;;;;;;;28.17;22.60;;;29.70;49.70;;;;;;5096746;28;20343;-70
2023/09/15 12:24:20;;;;;;;17.35;14.65;;;30.00;49.60;;;;;;5096426;28;20637;-70
2023/09/15 12:26:46;;;;;;;22.83;17.25;;;29.10;46.40;;;;;;5088519;28;20504;-70
2023/09/15 12:29:22;;;;;;;23.08;15.95;;;29.00;48.90;;;;;;5092818;28;20346;-71
2023/09/15 12:31:52;;;;;;;22.35;16.50;;;29.10;48.10;;;;;;5092513;28;20031;-70
2023/09/15 12:34:32;;;;;;;20.15;16.25;;;29.60;47.30;;;;;;5095600;28;20023;-70
2023/09/15 12:36:58;;;;;;;20.02;16.35;;;29.60;47.70;;;;;;5095117;28;20379;-69
2023/09/15 12:39:25;;;;;;;19.38;16.30;;;30.30;46.90;;;;;;5095255;28;20423;-70
2023/09/15 12:42:05;;;;;;;19.80;15.80;;;30.80;45.50;;;;;;5095558;28;20059;-69
2023/09/15 12:44:31;;;;;;;14.35;11.43;;;31.10;44.30;;;;;;5094808;28;20058;-70
2023/09/15 12:46:58;;;;;;;15.70;11.52;;;30.30;44.20;;;;;;5077518;28;20023;-70
2023/09/15 12:49:27;;;;;;;13.70;12.43;;;30.80;44.40;;;;;;5095541;28;20028;-70
2023/09/15 12:51:56;;;;;;;16.80;14.10;;;30.50;44.20;;;;;;5095062;28;20492;-70
2023/09/15 12:54:22;;;;;;;14.57;13.05;;;30.90;43.20;;;;;;5094946;28;20111;-70